Time;durP1;ratioP1;P1;durP2;ratioP2;P2;SDS_P1;SDS_P2;PMS_P1;PMS_P2;Temp;Humidity;BMP_temperature;BMP_pressure;BME280_temperature;BME280_humidity;BME280_pressure;Samples;Min_cycle;Max_cycle;Signal;HPM_P1;HPM_P2
2023/03/19 00:00:20;;;;;;;13.35;8.82;;;;;;;-0.86;100.00;93606.97;5089950;28;20052;-71
2023/03/19 00:02:50;;;;;;;14.80;9.30;;;;;;;-0.87;100.00;93597.81;5089761;28;20097;-71
2023/03/19 00:05:17;;;;;;;14.10;9.50;;;;;;;-0.85;100.00;93606.84;5089967;28;20079;-71
2023/03/19 00:07:44;;;;;;;14.73;9.43;;;;;;;-0.85;100.00;93603.53;5089892;28;20127;-71
2023/03/19 00:10:11;;;;;;;16.85;10.50;;;;;;;-1.09;100.00;93571.91;5089982;28;20604;-71
2023/03/19 00:12:38;;;;;;;17.70;10.43;;;;;;;-0.93;100.00;93599.13;5090184;28;20408;-71
2023/03/19 00:15:07;;;;;;;19.52;11.15;;;;;;;-1.01;100.00;93591.44;5089708;28;20044;-71
2023/03/19 00:17:36;;;;;;;18.70;11.43;;;;;;;-0.99;100.00;93597.13;5090145;28;20056;-71
2023/03/19 00:20:03;;;;;;;22.70;13.50;;;;;;;-0.98;100.00;93591.16;5089298;28;20043;-71
2023/03/19 00:22:30;;;;;;;26.15;17.08;;;;;;;-0.97;100.00;93590.25;5089756;28;20043;-71
2023/03/19 00:24:57;;;;;;;25.38;16.67;;;;;;;-0.99;100.00;93576.97;5069635;28;20092;-71
2023/03/19 00:27:26;;;;;;;23.95;14.18;;;;;;;-1.35;100.00;93530.31;5084155;28;20048;-72
2023/03/19 00:29:53;;;;;;;23.83;14.07;;;;;;;-0.98;100.00;93586.91;5090398;28;20083;-72
2023/03/19 00:32:20;;;;;;;20.90;12.88;;;;;;;-0.97;100.00;93580.16;5089955;28;20105;-72
2023/03/19 00:34:48;;;;;;;25.40;13.95;;;;;;;-0.98;100.00;93584.41;5088902;28;20135;-72
2023/03/19 00:37:16;;;;;;;22.65;13.82;;;;;;;-1.06;100.00;93576.69;5089370;28;20109;-72
2023/03/19 00:39:42;;;;;;;21.75;13.13;;;;;;;-1.05;100.00;93580.81;5089437;28;20483;-72
2023/03/19 00:42:09;;;;;;;25.83;16.90;;;;;;;-1.14;100.00;93574.00;5089197;28;20055;-72
2023/03/19 00:44:36;;;;;;;27.08;16.13;;;;;;;-1.16;100.00;93573.34;5089632;28;20048;-72
2023/03/19 00:47:03;;;;;;;30.83;17.85;;;;;;;-1.22;100.00;93564.56;5089617;28;20101;-72
2023/03/19 00:49:29;;;;;;;29.10;18.27;;;;;;;-1.25;100.00;93573.19;5089547;28;20129;-72
2023/03/19 00:51:58;;;;;;;26.83;17.80;;;;;;;-1.38;100.00;93550.72;5089198;28;20040;-72
2023/03/19 00:54:24;;;;;;;21.67;14.90;;;;;;;-1.28;100.00;93567.59;5089012;28;20464;-72
2023/03/19 00:56:51;;;;;;;20.73;12.90;;;;;;;-1.31;100.00;93558.56;5089362;28;20048;-72
2023/03/19 00:59:18;;;;;;;17.13;11.50;;;;;;;-1.36;100.00;93545.56;5089454;28;20093;-72
2023/03/19 01:01:44;;;;;;;22.92;13.75;;;;;;;-1.23;100.00;93556.22;5089077;28;20044;-71
2023/03/19 01:04:11;;;;;;;22.50;14.73;;;;;;;-1.19;100.00;93554.22;5089139;28;20097;-72
2023/03/19 01:06:38;;;;;;;18.55;12.73;;;;;;;-1.21;100.00;93556.88;5089078;28;20439;-71
2023/03/19 01:09:06;;;;;;;21.25;13.70;;;;;;;-1.24;100.00;93558.88;5089095;28;20089;-72
2023/03/19 01:11:33;;;;;;;19.13;12.65;;;;;;;-1.27;100.00;93556.59;5089315;28;20382;-72
2023/03/19 01:14:00;;;;;;;19.88;11.90;;;;;;;-1.32;100.00;93553.66;5088869;28;20044;-72
2023/03/19 01:16:27;;;;;;;19.92;12.13;;;;;;;-1.44;100.00;93551.22;5089253;28;20055;-72
2023/03/19 01:18:54;;;;;;;18.17;12.23;;;;;;;-1.46;100.00;93549.75;5089205;28;20044;-72
2023/03/19 01:21:21;;;;;;;24.63;13.45;;;;;;;-1.46;100.00;93543.00;5089006;28;20505;-72
2023/03/19 01:23:47;;;;;;;40.88;20.10;;;;;;;-1.53;100.00;93545.25;5089151;28;20105;-72
2023/03/19 01:26:15;;;;;;;30.73;17.45;;;;;;;-1.58;100.00;93544.81;5088682;28;20044;-72
2023/03/19 01:28:42;;;;;;;30.50;16.15;;;;;;;-1.60;100.00;93541.63;5088965;28;20048;-72
2023/03/19 01:31:10;;;;;;;29.35;14.77;;;;;;;-1.58;100.00;93542.28;5088782;28;20085;-71
2023/03/19 01:33:37;;;;;;;24.52;14.40;;;;;;;-1.67;100.00;93522.94;5088959;28;20044;-72
2023/03/19 01:36:07;;;;;;;22.98;12.18;;;;;;;-1.51;100.00;93540.06;5088693;28;20518;-72
2023/03/19 01:38:34;;;;;;;20.40;12.57;;;;;;;-1.50;100.00;93536.63;5088557;28;20431;-71
2023/03/19 01:41:00;;;;;;;19.33;11.95;;;;;;;-1.49;100.00;93540.75;5088703;28;20559;-71
2023/03/19 01:43:31;;;;;;;15.88;9.45;;;;;;;-1.51;100.00;93545.13;5089010;28;20089;-72
2023/03/19 01:46:01;;;;;;;13.30;9.25;;;;;;;-1.56;100.00;93545.50;5088650;28;20048;-72
2023/03/19 01:48:34;;;;;;;16.75;10.20;;;;;;;-1.67;100.00;93531.25;5092545;28;20056;-72
2023/03/19 01:51:02;;;;;;;15.70;10.35;;;;;;;-1.57;100.00;93545.63;5092856;28;20399;-72
2023/03/19 01:53:32;;;;;;;17.55;9.77;;;;;;;-1.62;100.00;93546.78;5093213;28;20076;-71
2023/03/19 01:56:04;;;;;;;19.02;11.55;;;;;;;-1.66;100.00;93534.59;5092689;28;20454;-71
2023/03/19 01:58:32;;;;;;;16.20;11.13;;;;;;;-1.69;100.00;93545.72;5092780;28;20053;-72
2023/03/19 02:00:59;;;;;;;19.73;12.77;;;;;;;-1.72;100.00;93545.19;5092397;28;20040;-71
2023/03/19 02:03:26;;;;;;;20.10;12.73;;;;;;;-1.76;100.00;93547.16;5092711;28;20093;-71
2023/03/19 02:05:55;;;;;;;19.33;12.35;;;;;;;-1.78;100.00;93541.44;5092262;28;20076;-71
2023/03/19 02:08:24;;;;;;;19.27;12.27;;;;;;;-1.84;100.00;93536.91;5092068;28;20052;-71
2023/03/19 02:10:54;;;;;;;21.38;12.48;;;;;;;-1.78;100.00;93549.78;5092327;28;20131;-71
2023/03/19 02:13:21;;;;;;;22.17;12.45;;;;;;;-1.78;100.00;93547.28;5092278;28;20097;-71
2023/03/19 02:15:50;;;;;;;21.42;12.85;;;;;;;-1.77;100.00;93546.34;5092267;28;20074;-71
2023/03/19 02:18:17;;;;;;;21.38;12.98;;;;;;;-1.80;100.00;93541.53;5092377;28;20123;-71
2023/03/19 02:20:50;;;;;;;21.38;13.80;;;;;;;-2.05;100.00;93510.03;5091922;28;20496;-71
2023/03/19 02:23:26;;;;;;;19.85;12.80;;;;;;;-1.88;100.00;93544.72;5091939;28;20044;-71
2023/03/19 02:26:07;;;;;;;21.30;12.05;;;;;;;-1.85;100.00;93543.63;5092242;28;20058;-71
2023/03/19 02:28:36;;;;;;;19.08;11.82;;;;;;;-1.82;100.00;93550.97;5091565;28;20070;-70
2023/03/19 02:31:03;;;;;;;17.63;11.45;;;;;;;-1.86;100.00;93553.84;5091914;28;20439;-70
2023/03/19 02:33:30;;;;;;;16.27;10.80;;;;;;;-1.91;100.00;93551.69;5091861;28;20446;-70
2023/03/19 02:35:58;;;;;;;19.48;12.02;;;;;;;-1.99;100.00;93551.53;5092032;28;20164;-70
2023/03/19 02:38:27;;;;;;;18.52;11.55;;;;;;;-2.05;100.00;93552.81;5091670;28;20052;-70
2023/03/19 02:40:58;;;;;;;17.42;11.63;;;;;;;-2.10;100.00;93550.69;5091930;28;20056;-70
2023/03/19 02:43:28;;;;;;;17.00;11.80;;;;;;;-2.01;100.00;93556.69;5091807;28;20074;-70
2023/03/19 02:45:55;;;;;;;19.33;12.52;;;;;;;-1.99;100.00;93552.31;5091835;28;20397;-71
2023/03/19 02:48:22;;;;;;;17.58;11.45;;;;;;;-2.00;100.00;93554.97;5091298;28;20097;-70
2023/03/19 02:50:49;;;;;;;18.00;12.00;;;;;;;-2.05;100.00;93555.34;5091383;28;20048;-70
2023/03/19 02:53:15;;;;;;;16.98;11.15;;;;;;;-2.05;100.00;93552.81;5091679;28;20044;-70
2023/03/19 02:55:43;;;;;;;14.07;8.70;;;;;;;-2.10;100.00;93555.72;5091248;28;20052;-70
2023/03/19 02:58:10;;;;;;;15.52;9.85;;;;;;;-2.19;100.00;93547.19;5089804;28;20504;-70
2023/03/19 03:00:38;;;;;;;12.52;8.38;;;;;;;-2.11;100.00;93559.16;5091111;28;20094;-70
2023/03/19 03:03:06;;;;;;;11.98;8.02;;;;;;;-2.16;100.00;93561.25;5091174;28;20044;-70
2023/03/19 03:05:33;;;;;;;12.35;8.23;;;;;;;-2.23;100.00;93572.72;5091092;28;20051;-70
2023/03/19 03:08:00;;;;;;;12.52;7.97;;;;;;;-2.23;100.00;93578.53;5090562;28;20492;-71
2023/03/19 03:10:26;;;;;;;14.15;7.88;;;;;;;-2.26;100.00;93575.47;5091034;28;20069;-71
2023/03/19 03:12:53;;;;;;;12.20;8.20;;;;;;;-2.34;100.00;93559.28;5091297;28;20048;-71
2023/03/19 03:15:20;;;;;;;12.18;8.27;;;;;;;-2.26;100.00;93583.03;5091373;28;20044;-71
2023/03/19 03:17:48;;;;;;;16.25;9.75;;;;;;;-2.41;100.00;93565.69;5077606;28;20048;-70
2023/03/19 03:20:18;;;;;;;17.88;10.52;;;;;;;-2.31;100.00;93580.88;5091043;28;20121;-71
2023/03/19 03:22:47;;;;;;;16.52;10.27;;;;;;;-2.34;100.00;93588.66;5090529;28;20090;-71
2023/03/19 03:25:14;;;;;;;16.25;10.45;;;;;;;-2.45;100.00;93580.25;5090816;28;20106;-71
2023/03/19 03:27:41;;;;;;;14.75;9.10;;;;;;;-2.39;100.00;93581.50;5090998;28;20105;-71
2023/03/19 03:30:10;;;;;;;13.77;9.68;;;;;;;-2.46;100.00;93580.38;5090756;28;20135;-71
2023/03/19 03:32:38;;;;;;;17.10;9.55;;;;;;;-2.39;100.00;93585.72;5090679;28;20062;-71
2023/03/19 03:35:08;;;;;;;14.43;8.73;;;;;;;-2.58;100.00;93547.72;5090546;28;20450;-71
2023/03/19 03:37:35;;;;;;;14.07;8.68;;;;;;;-2.36;100.00;93588.78;5090950;28;20048;-72
2023/03/19 03:40:08;;;;;;;15.65;9.50;;;;;;;-2.36;100.00;93585.47;5090506;28;20412;-71
2023/03/19 03:42:36;;;;;;;14.93;9.35;;;;;;;-2.40;100.00;93584.13;5090478;28;20047;-71
2023/03/19 03:45:04;;;;;;;17.60;9.60;;;;;;;-2.38;100.00;93593.16;5090259;28;20072;-71
2023/03/19 03:47:31;;;;;;;15.73;9.82;;;;;;;-2.42;100.00;93585.03;5090353;28;20044;-71
2023/03/19 03:49:57;;;;;;;14.80;9.38;;;;;;;-2.40;100.00;93581.59;5090121;28;20036;-70
2023/03/19 03:52:30;;;;;;;15.40;10.13;;;;;;;-2.44;100.00;93576.81;5090504;28;20122;-69
2023/03/19 03:54:56;;;;;;;16.23;9.35;;;;;;;-2.58;100.00;93549.44;5090442;28;20043;-70
2023/03/19 03:57:23;;;;;;;15.73;9.07;;;;;;;-2.40;100.00;93579.09;5089779;28;20116;-70
2023/03/19 03:59:50;;;;;;;19.02;12.05;;;;;;;-2.48;100.00;93575.47;5090153;28;20093;-70
2023/03/19 04:02:17;;;;;;;17.50;10.85;;;;;;;-2.59;100.00;93571.25;5090329;28;20052;-69
2023/03/19 04:04:43;;;;;;;19.55;12.30;;;;;;;-2.50;100.00;93576.50;5090024;28;20105;-69
2023/03/19 04:07:11;;;;;;;16.58;9.82;;;;;;;-2.53;100.00;93575.03;5089870;28;20101;-71
2023/03/19 04:09:39;;;;;;;14.98;9.63;;;;;;;-2.53;100.00;93579.25;5089633;28;20047;-72
2023/03/19 04:12:06;;;;;;;17.38;10.48;;;;;;;-2.52;100.00;93570.78;5090158;28;20040;-72
2023/03/19 04:14:32;;;;;;;14.90;9.32;;;;;;;-2.51;100.00;93577.44;5089840;28;20056;-71
2023/03/19 04:16:59;;;;;;;13.95;9.57;;;;;;;-2.59;100.00;93578.03;5089939;28;20114;-71
2023/03/19 04:19:26;;;;;;;15.27;9.70;;;;;;;-2.62;100.00;93570.72;5076660;28;20585;-71
2023/03/19 04:21:53;;;;;;;15.85;10.60;;;;;;;-2.64;100.00;93570.81;5090053;28;20424;-71
2023/03/19 04:24:20;;;;;;;16.25;10.63;;;;;;;-2.63;100.00;93567.41;5076705;28;20420;-71
2023/03/19 04:26:48;;;;;;;17.83;10.10;;;;;;;-2.67;100.00;93577.81;5089273;28;20048;-71
2023/03/19 04:29:16;;;;;;;14.55;9.20;;;;;;;-2.71;100.00;93577.25;5089731;28;20083;-71
2023/03/19 04:31:42;;;;;;;21.15;12.32;;;;;;;-2.78;100.00;93579.44;5089454;28;20550;-71
2023/03/19 04:34:09;;;;;;;27.38;12.63;;;;;;;-2.80;100.00;93580.47;5090066;28;20044;-71
2023/03/19 04:36:36;;;;;;;28.42;15.18;;;;;;;-2.83;100.00;93579.00;5089807;28;20040;-71
2023/03/19 04:39:03;;;;;;;22.83;13.60;;;;;;;-2.85;100.00;93584.16;5089369;28;20546;-70
2023/03/19 04:41:30;;;;;;;22.40;13.07;;;;;;;-2.77;100.00;93586.09;5089290;28;20048;-71
2023/03/19 04:43:58;;;;;;;20.55;12.27;;;;;;;-2.81;100.00;93574.66;5089597;28;20048;-71
2023/03/19 04:46:24;;;;;;;19.67;11.40;;;;;;;-2.69;100.00;93588.00;5078432;28;20094;-71
2023/03/19 04:48:51;;;;;;;16.67;10.48;;;;;;;-2.65;100.00;93586.84;5086806;28;20040;-71
2023/03/19 04:51:20;;;;;;;18.60;11.90;;;;;;;-2.69;100.00;93578.75;5079381;28;20040;-71
2023/03/19 04:53:47;;;;;;;21.08;13.60;;;;;;;-2.68;100.00;93577.03;5080556;28;20497;-71
2023/03/19 04:56:15;;;;;;;30.90;17.27;;;;;;;-2.77;100.00;93576.03;5086052;28;20044;-71
2023/03/19 04:58:42;;;;;;;26.23;15.02;;;;;;;-2.68;100.00;93582.06;5085511;28;20044;-71
2023/03/19 05:01:10;;;;;;;32.70;16.35;;;;;;;-2.67;100.00;93585.38;5081078;28;20045;-72
2023/03/19 05:03:37;;;;;;;41.00;22.75;;;;;;;-2.72;100.00;93584.00;5084483;28;20047;-72
2023/03/19 05:06:04;;;;;;;20.95;13.30;;;;;;;-2.78;100.00;93588.72;5081410;28;20048;-71
2023/03/19 05:08:31;;;;;;;24.88;15.32;;;;;;;-2.80;100.00;93585.50;5083343;28;20054;-71
2023/03/19 05:10:58;;;;;;;31.52;16.90;;;;;;;-2.79;100.00;93580.38;5082354;28;20045;-72
2023/03/19 05:13:25;;;;;;;28.48;17.05;;;;;;;-2.72;100.00;93586.50;5082797;28;20048;-72
2023/03/19 05:15:53;;;;;;;26.30;15.13;;;;;;;-2.67;100.00;93578.63;5082909;28;20041;-71
2023/03/19 05:18:22;;;;;;;27.05;16.30;;;;;;;-2.60;100.00;93584.00;5082611;28;20114;-72
2023/03/19 05:20:49;;;;;;;30.95;16.98;;;;;;;-2.52;100.00;93583.34;5082962;28;20086;-72
2023/03/19 05:23:16;;;;;;;25.52;16.92;;;;;;;-2.44;100.00;93588.59;5082924;28;20049;-72
2023/03/19 05:25:43;;;;;;;26.50;16.10;;;;;;;-2.36;100.00;93586.25;5092922;28;20052;-71
2023/03/19 05:28:10;;;;;;;25.33;15.52;;;;;;;-2.34;100.00;93569.34;5092606;28;20052;-72
2023/03/19 05:30:37;;;;;;;26.75;15.43;;;;;;;-2.13;100.00;93580.34;5092999;28;20040;-72
2023/03/19 05:33:04;;;;;;;25.40;16.60;;;;;;;-2.03;100.00;93571.91;5093168;28;20048;-72
2023/03/19 05:35:33;;;;;;;24.15;15.25;;;;;;;-1.92;100.00;93577.81;5093043;28;20056;-72
2023/03/19 05:38:03;;;;;;;25.35;14.98;;;;;;;-1.89;100.00;93562.47;5073505;28;20079;-72
2023/03/19 05:40:33;;;;;;;24.88;16.63;;;;;;;-2.57;100.00;93458.78;5073722;28;20048;-73
2023/03/19 05:43:00;;;;;;;29.67;17.88;;;;;;;-1.61;100.00;93571.06;5072080;28;20129;-73
2023/03/19 05:45:27;;;;;;;27.70;17.02;;;;;;;-1.45;100.00;93582.41;5079629;28;20118;-73
2023/03/19 05:47:54;;;;;;;26.58;17.23;;;;;;;-1.26;100.00;93580.88;5072004;28;20049;-73
2023/03/19 05:50:20;;;;;;;26.60;17.15;;;;;;;-1.27;100.00;93582.59;5074267;28;20102;-72
2023/03/19 05:52:49;;;;;;;29.77;19.58;;;;;;;-1.27;100.00;93584.31;5092677;28;20051;-72
2023/03/19 05:55:16;;;;;;;24.27;16.63;;;;;;;-1.23;100.00;93583.94;5083267;28;20048;-72
2023/03/19 05:57:42;;;;;;;24.77;16.65;;;;;;;-1.14;100.00;93584.91;5092834;28;20052;-72
2023/03/19 06:00:11;;;;;;;22.52;16.00;;;;;;;-1.07;100.00;93582.63;5092870;28;20085;-71
2023/03/19 06:02:38;;;;;;;23.50;15.75;;;;;;;-0.90;100.00;93591.31;5092890;28;20043;-71
2023/03/19 06:05:06;;;;;;;23.48;17.02;;;;;;;-0.81;100.00;93590.53;5086253;28;20105;-71
2023/03/19 06:07:32;;;;;;;28.27;16.88;;;;;;;-0.82;100.00;93588.94;5072186;28;20057;-72
2023/03/19 06:10:01;;;;;;;36.08;22.95;;;;;;;-0.66;100.00;93580.06;5091309;28;20036;-71
2023/03/19 06:12:28;;;;;;;37.17;21.63;;;;;;;-0.41;100.00;93586.31;5092268;28;20562;-71
2023/03/19 06:14:55;;;;;;;27.73;17.02;;;;;;;-0.34;100.00;93594.16;5078883;28;20044;-71
2023/03/19 06:17:22;;;;;;;29.95;16.80;;;;;;;-0.19;100.00;93599.59;5085377;28;20074;-72
2023/03/19 06:19:48;;;;;;;25.40;15.80;;;;;;;-0.03;100.00;93596.53;5079027;28;20045;-72
2023/03/19 06:22:15;;;;;;;29.55;15.95;;;;;;;-0.05;100.00;93595.06;5092412;28;20450;-72
2023/03/19 06:24:42;;;;;;;25.00;14.55;;;;;;;-0.02;100.00;93594.78;5077237;28;20041;-72
2023/03/19 06:27:10;;;;;;;25.02;14.65;;;;;;;0.18;100.00;93587.19;5083184;28;20097;-72
2023/03/19 06:29:37;;;;;;;28.10;14.48;;;;;;;0.51;100.00;93602.78;5092114;28;20089;-72
2023/03/19 06:32:04;;;;;;;22.98;12.95;;;;;;;0.75;100.00;93602.28;5091725;28;20039;-72
2023/03/19 06:34:31;;;;;;;26.40;15.00;;;;;;;0.76;100.00;93606.44;5074049;28;20086;-72
2023/03/19 06:36:57;;;;;;;29.38;15.88;;;;;;;0.82;100.00;93599.22;5089593;28;20044;-72
2023/03/19 06:39:24;;;;;;;26.55;14.27;;;;;;;1.08;100.00;93609.47;5091632;28;20052;-71
2023/03/19 06:41:51;;;;;;;30.67;15.00;;;;;;;1.24;100.00;93613.13;5091928;28;20109;-71
2023/03/19 06:44:19;;;;;;;26.95;12.82;;;;;;;1.41;100.00;93612.34;5091765;28;20048;-70
2023/03/19 06:46:45;;;;;;;46.75;20.75;;;;;;;1.51;100.00;93614.81;5091375;28;20097;-71
2023/03/19 06:49:12;;;;;;;28.42;14.73;;;;;;;1.68;100.00;93613.25;5091448;28;20070;-71
2023/03/19 06:51:39;;;;;;;31.58;13.80;;;;;;;1.98;100.00;93608.72;5082572;28;20508;-71
2023/03/19 06:54:06;;;;;;;25.90;12.90;;;;;;;2.13;95.56;93608.97;5086625;28;20051;-71
2023/03/19 06:56:33;;;;;;;30.38;13.98;;;;;;;2.39;98.61;93604.88;5091483;28;20056;-71
2023/03/19 06:58:59;;;;;;;20.15;10.90;;;;;;;2.59;92.48;93615.59;5091336;28;20040;-71
2023/03/19 07:01:28;;;;;;;16.23;9.50;;;;;;;2.78;88.55;93601.91;5091257;28;20051;-71
2023/03/19 07:03:56;;;;;;;24.58;13.35;;;;;;;3.02;89.45;93612.31;5075235;28;20052;-71
2023/03/19 07:06:22;;;;;;;18.83;11.07;;;;;;;3.27;90.10;93609.84;5090824;28;20155;-71
2023/03/19 07:08:49;;;;;;;23.98;10.68;;;;;;;3.53;87.19;93608.97;5091098;28;20062;-71
2023/03/19 07:11:16;;;;;;;21.73;10.60;;;;;;;3.84;84.81;93601.53;5091177;28;20504;-71
2023/03/19 07:13:43;;;;;;;29.48;13.30;;;;;;;4.07;84.63;93605.19;5091214;28;20043;-71
2023/03/19 07:16:09;;;;;;;30.13;13.95;;;;;;;4.35;83.02;93607.41;5091185;28;20044;-71
2023/03/19 07:18:37;;;;;;;30.00;15.45;;;;;;;4.55;77.56;93603.53;5090997;28;20048;-71
2023/03/19 07:21:05;;;;;;;26.30;12.68;;;;;;;4.62;77.41;93587.59;5091086;28;20052;-71
2023/03/19 07:23:32;;;;;;;21.60;11.90;;;;;;;4.83;76.59;93592.19;5078988;28;20434;-71
2023/03/19 07:26:05;;;;;;;23.95;11.80;;;;;;;5.13;77.38;93596.69;5071392;28;20053;-71
2023/03/19 07:28:31;;;;;;;25.33;12.68;;;;;;;5.25;72.28;93590.25;5086141;28;20515;-71
2023/03/19 07:30:58;;;;;;;17.75;10.43;;;;;;;5.37;67.22;93593.19;5090959;28;20431;-71
2023/03/19 07:33:25;;;;;;;20.23;10.93;;;;;;;5.48;71.01;93595.34;5088884;28;20036;-72
2023/03/19 07:35:53;;;;;;;19.27;10.18;;;;;;;5.68;72.44;93592.38;5088410;28;20052;-71
2023/03/19 07:38:20;;;;;;;16.67;8.07;;;;;;;5.97;71.39;93595.22;5089353;28;20109;-71
2023/03/19 07:40:46;;;;;;;17.73;7.95;;;;;;;6.11;66.42;93599.59;5090856;28;20117;-71
2023/03/19 07:43:13;;;;;;;15.43;8.40;;;;;;;5.92;66.30;93595.72;5090712;28;20355;-71
2023/03/19 07:45:40;;;;;;;13.98;6.25;;;;;;;6.13;70.10;93594.31;5090133;28;20097;-71
2023/03/19 07:48:07;;;;;;;13.45;7.00;;;;;;;6.33;70.07;93592.06;5084911;28;20052;-73
2023/03/19 07:50:34;;;;;;;14.35;7.65;;;;;;;6.53;71.38;93600.00;5084587;28;20113;-72
2023/03/19 07:53:02;;;;;;;14.90;7.93;;;;;;;6.62;66.86;93594.84;5071321;28;20375;-72
2023/03/19 07:55:29;;;;;;;10.13;6.07;;;;;;;6.86;63.91;93595.53;5085553;28;20044;-72
2023/03/19 07:57:56;;;;;;;11.43;5.72;;;;;;;6.95;63.78;93595.25;5090624;28;20051;-71
2023/03/19 08:00:23;;;;;;;10.43;5.38;;;;;;;6.91;61.98;93601.69;5090200;28;20040;-71
2023/03/19 08:02:49;;;;;;;11.35;5.18;;;;;;;7.13;62.20;93600.97;5074141;28;20044;-72
2023/03/19 08:05:16;;;;;;;10.38;4.75;;;;;;;7.24;58.78;93597.97;5077052;28;20443;-72
2023/03/19 08:07:43;;;;;;;7.45;4.32;;;;;;;6.66;56.88;93567.97;5089786;28;20051;-72
2023/03/19 08:10:12;;;;;;;8.73;4.90;;;;;;;6.94;56.86;93591.13;5089937;28;20508;-72
2023/03/19 08:12:45;;;;;;;7.97;4.38;;;;;;;6.85;59.18;93586.28;5088848;28;20128;-72
2023/03/19 08:15:13;;;;;;;9.00;4.32;;;;;;;6.68;57.34;93597.47;5088289;28;20052;-72
2023/03/19 08:17:40;;;;;;;8.02;4.20;;;;;;;6.81;60.01;93594.28;5076396;28;20040;-71
2023/03/19 08:20:10;;;;;;;8.73;4.15;;;;;;;7.05;62.14;93594.97;5090233;28;20054;-70
2023/03/19 08:22:37;;;;;;;10.45;4.03;;;;;;;7.37;58.38;93589.66;5089822;28;20469;-70
2023/03/19 08:25:05;;;;;;;9.57;4.65;;;;;;;7.45;57.50;93584.41;5089515;28;20389;-70
2023/03/19 08:27:34;;;;;;;12.20;4.95;;;;;;;7.15;56.04;93592.16;5089829;28;20055;-69
2023/03/19 08:30:01;;;;;;;12.70;4.47;;;;;;;7.41;57.66;93593.41;5089746;28;20170;-69
2023/03/19 08:32:28;;;;;;;9.27;3.55;;;;;;;7.42;55.70;93591.66;5089998;28;20048;-69
2023/03/19 08:34:55;;;;;;;8.23;4.30;;;;;;;7.27;54.46;93595.03;5089553;28;20048;-70
2023/03/19 08:37:21;;;;;;;15.73;5.72;;;;;;;7.06;56.02;93594.03;5089312;28;20048;-69
2023/03/19 08:39:50;;;;;;;23.85;6.43;;;;;;;7.45;55.92;93601.53;5079497;28;20122;-71
2023/03/19 08:42:17;;;;;;;32.78;9.52;;;;;;;7.47;58.62;93591.91;5081187;28;20454;-70
2023/03/19 08:44:45;;;;;;;33.65;10.05;;;;;;;7.82;60.49;93592.06;5089149;28;20040;-70
2023/03/19 08:47:13;;;;;;;32.95;9.20;;;;;;;8.05;58.58;93582.63;5089737;28;20052;-70
2023/03/19 08:49:39;;;;;;;33.75;9.30;;;;;;;8.13;59.75;93583.28;5089360;28;20085;-70
2023/03/19 08:52:07;;;;;;;35.90;9.38;;;;;;;8.36;56.92;93587.38;5089803;28;20098;-70
2023/03/19 08:54:34;;;;;;;23.67;6.65;;;;;;;8.65;53.77;93582.25;5089203;28;20707;-70
2023/03/19 08:57:00;;;;;;;24.75;8.68;;;;;;;8.53;53.19;93587.13;5088734;28;20105;-70
2023/03/19 08:59:28;;;;;;;22.80;8.02;;;;;;;8.78;54.90;93576.41;5089385;28;20051;-70
2023/03/19 09:01:56;;;;;;;25.58;9.25;;;;;;;9.09;58.85;93572.63;5075586;28;20094;-70
2023/03/19 09:04:23;;;;;;;19.60;7.60;;;;;;;9.57;55.23;93581.25;5079557;28;20094;-70
2023/03/19 09:06:50;;;;;;;20.35;6.70;;;;;;;9.83;53.34;93577.16;5070588;28;20503;-70
2023/03/19 09:09:17;;;;;;;11.70;5.00;;;;;;;9.87;49.48;93574.00;5068337;28;20515;-70
2023/03/19 09:11:45;;;;;;;14.38;4.68;;;;;;;10.13;50.81;93575.00;5068807;28;20386;-70
2023/03/19 09:14:11;;;;;;;20.23;6.90;;;;;;;10.42;54.78;93570.47;5068957;28;20051;-70
2023/03/19 09:16:38;;;;;;;19.40;6.03;;;;;;;10.79;53.23;93562.31;5069988;28;20538;-72
2023/03/19 09:19:07;;;;;;;18.77;6.28;;;;;;;11.14;55.81;93571.50;5070301;28;20519;-71
2023/03/19 09:21:34;;;;;;;22.27;6.28;;;;;;;11.47;54.47;93564.63;5069519;28;20040;-71
2023/03/19 09:24:01;;;;;;;27.20;7.40;;;;;;;11.78;52.29;93568.22;5073566;28;20041;-71
2023/03/19 09:26:27;;;;;;;20.33;6.97;;;;;;;11.83;49.20;93557.28;5068447;28;20037;-71
2023/03/19 09:28:57;;;;;;;15.30;5.93;;;;;;;11.97;46.03;93560.56;5070593;28;20543;-72
2023/03/19 09:31:24;;;;;;;16.02;5.95;;;;;;;11.85;47.10;93558.66;5069918;28;20091;-71
2023/03/19 09:33:51;;;;;;;16.38;5.32;;;;;;;10.94;47.13;93563.88;5068549;28;20148;-72
2023/03/19 09:36:19;;;;;;;17.90;5.18;;;;;;;11.04;47.52;93563.44;5068448;28;20094;-71
2023/03/19 09:38:49;;;;;;;10.93;4.95;;;;;;;11.24;51.65;93540.19;5068014;28;20094;-70
2023/03/19 09:41:27;;;;;;;13.68;5.13;;;;;;;11.34;49.85;93560.34;5069780;28;20053;-71
2023/03/19 09:44:01;;;;;;;12.23;4.88;;;;;;;11.63;53.11;93548.69;5073404;28;20117;-71
2023/03/19 09:46:36;;;;;;;11.13;6.07;;;;;;;11.86;47.80;93556.88;5087979;28;20484;-72
2023/03/19 09:49:14;;;;;;;22.67;11.50;;;;;;;11.57;48.21;93552.09;5082571;28;20497;-71
2023/03/19 09:51:57;;;;;;;13.10;5.28;;;;;;;11.48;47.53;93550.78;5084768;28;20110;-71
2023/03/19 09:54:31;;;;;;;17.50;6.13;;;;;;;11.77;48.30;93544.25;5084145;28;20052;-71
2023/03/19 09:56:58;;;;;;;16.75;5.20;;;;;;;12.08;50.77;93541.13;5080207;28;20084;-71
2023/03/19 09:59:27;;;;;;;13.40;5.00;;;;;;;11.69;49.30;93547.09;5084848;28;20062;-70
2023/03/19 10:02:06;;;;;;;11.23;4.65;;;;;;;11.57;47.32;93534.09;5089451;28;20044;-70
2023/03/19 10:04:42;;;;;;;14.77;4.60;;;;;;;12.17;51.04;93542.41;5088270;28;20412;-71
2023/03/19 10:07:23;;;;;;;13.55;4.78;;;;;;;12.42;52.56;93510.69;5088940;28;20044;-71
2023/03/19 10:10:01;;;;;;;11.82;5.25;;;;;;;12.77;45.25;93535.91;5092528;28;20044;-71
2023/03/19 10:12:43;;;;;;;14.00;5.22;;;;;;;12.77;45.43;93535.91;5092220;28;20052;-71
2023/03/19 10:15:19;;;;;;;13.25;5.22;;;;;;;12.62;47.98;93501.97;5092077;28;20047;-70
2023/03/19 10:17:54;;;;;;;14.75;4.15;;;;;;;13.01;49.38;93520.56;5092227;28;20048;-71
2023/03/19 10:20:30;;;;;;;12.07;4.88;;;;;;;13.21;48.30;93509.22;5092495;28;20044;-71
2023/03/19 10:23:04;;;;;;;12.07;4.85;;;;;;;13.53;48.72;93524.53;5092214;28;20414;-71
2023/03/19 10:25:33;;;;;;;14.65;5.63;;;;;;;13.74;48.15;93523.22;5092058;28;20089;-71
2023/03/19 10:28:05;;;;;;;13.60;4.38;;;;;;;13.93;46.65;93512.03;5092384;28;20048;-71
2023/03/19 10:30:33;;;;;;;10.55;4.18;;;;;;;14.14;45.26;93508.13;5092171;28;20069;-71
2023/03/19 10:33:12;;;;;;;9.15;4.18;;;;;;;14.19;44.03;93505.66;5091955;28;20066;-71
2023/03/19 10:35:43;;;;;;;8.18;3.92;;;;;;;14.13;43.51;93504.72;5078522;28;20541;-71
2023/03/19 10:38:20;;;;;;;8.07;4.00;;;;;;;13.69;46.93;93494.69;5091558;28;20134;-71
2023/03/19 10:41:01;;;;;;;13.23;4.20;;;;;;;14.02;47.00;93477.91;5092774;28;20048;-71
2023/03/19 10:43:29;;;;;;;10.68;4.10;;;;;;;14.32;45.51;93485.75;5092186;28;20568;-71
2023/03/19 10:45:57;;;;;;;9.18;4.03;;;;;;;14.47;43.82;93483.50;5092131;28;20470;-71
2023/03/19 10:48:26;;;;;;;10.65;4.50;;;;;;;14.36;48.67;93474.75;5091279;28;20056;-71
2023/03/19 10:50:56;;;;;;;13.60;3.90;;;;;;;14.52;45.38;93469.88;5091973;28;20044;-71
2023/03/19 10:53:32;;;;;;;8.35;3.60;;;;;;;14.88;48.82;93460.28;5091599;28;20071;-71
2023/03/19 10:56:01;;;;;;;;;;;;;;;14.89;43.37;93463.66;5095237;28;20126;-71
2023/03/19 10:58:30;;;;;;;7.13;3.40;;;;;;;14.84;46.10;93451.41;5091743;28;19937;-71
2023/03/19 11:00:59;;;;;;;10.88;3.33;;;;;;;15.16;46.59;93445.78;5091588;28;20048;-71
2023/03/19 11:03:31;;;;;;;6.78;3.00;;;;;;;15.38;46.05;93442.53;5089404;28;20504;-71
2023/03/19 11:06:17;;;;;;;6.70;2.40;;;;;;;15.47;43.51;93430.75;5088982;28;20102;-71
2023/03/19 11:08:52;;;;;;;9.13;3.08;;;;;;;15.57;43.40;93421.59;5090712;28;20138;-71
2023/03/19 11:11:42;;;;;;;10.60;3.85;;;;;;;15.85;43.67;93430.31;5079493;28;20040;-71
2023/03/19 11:14:14;;;;;;;9.93;3.95;;;;;;;15.90;41.44;93431.19;5090873;28;20651;-71
2023/03/19 11:16:56;;;;;;;6.55;2.90;;;;;;;16.04;42.87;93417.91;5091158;28;20048;-72
2023/03/19 11:19:25;;;;;;;7.18;3.25;;;;;;;16.22;40.85;93416.06;5077553;28;20544;-71
2023/03/19 11:22:02;;;;;;;6.68;3.20;;;;;;;16.24;38.30;93416.63;5091010;28;20492;-71
2023/03/19 11:24:33;;;;;;;5.95;2.42;;;;;;;16.30;40.35;93402.72;5091281;28;20159;-71